x

Nantucket Sound (44020) Wave Buoy

4:50 - Fri 29th Apr 2016 All times are EDT. -4 hours from GMT.

  • Sig Wave height 2.0ft
  • Swell Direction
  • Peak Period 5s
  • Average Period 4s
  • Wind
    13mph, 16mph gusts
  • Sea Temp 49°f
  • Air Temp 45°f
  • Sea Pressure 1020.3mb
  • Nantucket Sound
  • Nantucket Sound

More Historic Weather Station data

Upgrade to MSW Pro to gain access to the past 30 days of data for over 8000 Wavebouys and Weather Stations around the globe.

Join Pro

Comparision Forecast

View Surf forecast
   
ven. 04/29 4:50 2ft 5s 4s 13 16 mph 1020.3mb 49f 45f
3:50 1.6ft 4s 4s 16 18 mph 1020.2mb 49f 45f
2:50 1.6ft 4s 4s 16 18 mph 1020.4mb 49f 45f
1:50 1.6ft 3s 4s 16 18 mph 1021.3mb 48f 45f
12:50 1.6ft 4s 4s 16 18 mph 1021.9mb 48f 45f
11:50 1.6ft 4s 4s 16 18 mph 1022.4mb 48f 45f
10:50 1.6ft 3s 3s 13 18 mph 1022.3mb 48f 45f
9:50 1.6ft 3s 3s 16 20 mph 1021.5mb 48f 44f
8:50 1.3ft 3s 3s 18 20 mph 1021.4mb 48f 44f
7:50 1.6ft 2s 3s 18 20 mph 1021.5mb 48f 44f
6:50 1.3ft 4s 3s 16 18 mph 1021.2mb 48f 45f
5:50 1.3ft 3s 3s 13 18 mph 1020.3mb 49f 45f
4:50 1.3ft 4s 3s 13 16 mph 1019.8mb 49f 45f
3:50 1.3ft 3s 3s 11 13 mph 1019.7mb 49f 45f
2:50 1ft 3s 3s 11 16 mph 1019mb 49f 45f
1:50 1ft 3s 3s 13 16 mph 1019mb 49f 45f
12:50 0.7ft  -  4s 9 11 mph 1019.6mb 49f 45f
jeu. 04/28 8:50 1ft 2s 3s 11 13 mph 1019.1mb 48f 46f
7:50 1ft 3s 3s 11 13 mph 1018.6mb 48f 46f
6:50 1ft 5s 3s 13 16 mph 1018.3mb 49f 46f
5:50 1.3ft 5s 3s 11 13 mph 1018.4mb 49f 47f
4:50 1.3ft 5s 3s 13 16 mph 1017.6mb 50f 46f
3:50 1ft 5s 3s 13
mph
1017.2mb 50f 46f
2:50 0.7ft  -  4s 13 16 mph 1017.6mb 49f 46f
1:50 0.7ft  -  3s 7 9 mph 1018.3mb 49f 46f
12:50 1ft 4s 3s 7 9 mph 1018.3mb 49f 46f
11:50 1ft 6s 3s 7 9 mph 1018.5mb 49f 46f
10:50 1ft 5s 4s 4 7 mph 1018.3mb 48f 46f
9:50 1ft 5s 4s 7 9 mph 1017.9mb 48f 45f
8:50 1.3ft 4s 4s 9 11 mph 1017.7mb 47f 46f
7:50 1.3ft 3s 3s 7 9 mph 1017mb 47f 46f
6:50 1.6ft 3s 3s 9 11 mph 1016.3mb 48f 46f
5:50 2ft 4s 3s 16 20 mph 1014.7mb 48f 46f
4:50 2ft 3s 3s 20 22 mph 1013.7mb 49f 46f
3:50 1.6ft 3s 3s 16 20 mph 1013.1mb 49f 47f
2:50 1.6ft 3s 3s 20 25 mph 1012.1mb 49f 49f
1:50 1.3ft 3s 3s 18 22 mph 1011.7mb 49f 49f
12:50 1.6ft 3s 3s 18 20 mph 1012mb 49f 48f
mer. 04/27 11:50 1.6ft 3s 3s 18 20 mph 1011.6mb 48f 48f
10:50 2ft 3s 3s 18 20 mph 1011.4mb 48f 48f
9:50 2ft 3s 3s 16 20 mph 1011.6mb 48f 47f
8:50 1.6ft 3s 3s 18 20 mph 1010.9mb 48f 47f
7:50 1.6ft 3s 3s 18 20 mph 1010.7mb 48f 47f
6:50 1.6ft 3s 3s 16 20 mph 1011.1mb 48f 47f
5:50 1.3ft 5s 4s 18 20 mph 1011.3mb 49f 47f
4:50 1.3ft 6s 4s 16 18 mph 1011.4mb 49f 46f
3:50 1.6ft 9s 4s 13
mph
1012mb 49f 46f
2:50 1ft 5s 4s 16 18 mph 1012.4mb 49f 45f
1:50 1ft 4s 4s 11 13 mph 1013.1mb 49f 45f
12:50 1ft 4s 4s 9 11 mph 1013.1mb 48f 45f
11:50 1ft 4s 4s 7 9 mph 1013.5mb 48f 45f
10:50 1ft 4s 4s 2 4 mph 1013.8mb 48f 44f
9:50 1ft 7s 4s 4
mph
1013.7mb 47f 43f
8:50 1.3ft 6s 4s 4 7 mph 1013.2mb 46f 43f
7:50 1.3ft 7s 4s 2 4 mph 1013mb 46f 43f
6:50 1.3ft 6s 4s 4 7 mph 1012.9mb 47f 42f
5:50 1.6ft 6s 4s 9 11 mph 1012.3mb 47f 41f
4:50 1.6ft 6s 4s 11 13 mph 1011.9mb 48f 41f
3:50 1.6ft 6s 4s 11 13 mph 1011.4mb 48f 42f
2:50 1.6ft 10s 4s 13 16 mph 1010.6mb 48f 42f
1:50 1.6ft 11s 4s 9 11 mph 1010.7mb 48f 42f
12:50 1.3ft 3s 4s 11 13 mph 1011.1mb 48f 42f
mar. 04/26 11:50 1.6ft 3s 4s 11 16 mph 1010.6mb 47f 42f
10:50 1.6ft 3s 4s 13 18 mph 1010.4mb 47f 42f
9:50 2ft 3s 4s 13 18 mph 1010mb 47f 42f
8:50 2.5ft 4s 4s 16 20 mph 1009.4mb 47f 42f
7:50 2.5ft 4s 4s 18 22 mph 1008.3mb 47f 43f
6:50 2.5ft 4s 4s 18 22 mph 1008mb 48f 43f
5:50 3.5ft 4s 4s 18 20 mph 1007mb 48f 43f
4:50 3ft 4s 4s 22 27 mph 1005.8mb 48f 43f
3:50 3ft 4s 4s 22 27 mph 1005.3mb 49f 44f
2:50 3ft 4s 4s 25 29 mph 1004.6mb 49f 44f
1:50 2.5ft 4s 4s 22 27 mph 1004.6mb 49f 44f
12:50 2ft 4s 4s 18 22 mph 1004.6mb 48f 44f
11:50 2ft 5s 4s 16 20 mph 1005.9mb 48f 45f
10:50 2.5ft 4s 4s 16 20 mph 1007mb 48f 45f
9:50 2.5ft 4s 4s 22 25 mph 1007.6mb 48f 45f
8:50 2.5ft 4s 3s 25 31 mph 1007.9mb 48f 45f
7:50 2.5ft 4s 3s 22 27 mph 1010mb 48f 45f
6:50 1.6ft 3s 3s 18 22 mph 1011.1mb 48f 46f
5:50 0.7ft  -  4s 22 27 mph 1010.3mb 48f 47f
4:50 0.7ft  -  4s 4 7 mph 1011.4mb 48f 48f
3:50 1ft 11s 4s 4
mph
1010.9mb 49f 49f
2:50 1ft 10s 5s 2
mph
1011.9mb 49f 49f
1:50 1ft 10s 5s  -  2 mph 1012.1mb 49f 49f
12:50 0.7ft  -  4s 4 7 mph 1013mb 49f 50f
lun. 04/25 11:50 0.7ft  -  3s 4 7 mph 1013.3mb 49f 50f
10:50 0.7ft  -  3s 7
mph
1013.4mb 49f 50f